Emory, Utah
Current Conditions -  °F | °C
As of 4:58 PM on Wednesday 26 Nov 2014 (Local Time) from KHIF Reporting Station
Clear Clear  
Wind Chill: 51°   Ceiling: Unl
Heat Index: 51°   Visibility: 10mi
Dew Point: 30°   Wind: 5mph
Humidity: 46%   Direction: 180°S
Pressure: 30.36"   Gusts: NA
Location:  40.9775°N, 111.442°W
Report Text: KHIF 262358Z AUTO 18004KT 10SM CLR 10/M01 A3036 RMK AO2 SLP267 T01041009 10135 20104 55002
Loading
Personal Weather Stations






























Interactive Weather Map New forecast layout! Learn more

10-Day Weather Forecast

Advertisements
Track Severe Weather on mobile